createdAt,value
2022-11-02T00:02:19.530Z,1.60
2022-11-02T00:04:47.950Z,1.73
2022-11-02T00:07:16.146Z,1.40
2022-11-02T00:09:45.033Z,1.27
2022-11-02T00:12:13.804Z,0.90
2022-11-02T00:14:42.118Z,1.33
2022-11-02T00:17:10.310Z,1.40
2022-11-02T00:19:38.584Z,1.97
2022-11-02T00:22:06.879Z,1.40
2022-11-02T00:24:35.132Z,1.60
2022-11-02T00:27:03.458Z,1.40
2022-11-02T00:29:34.016Z,1.13
2022-11-02T00:32:02.572Z,1.50
2022-11-02T00:34:30.844Z,1.33
2022-11-02T00:36:59.213Z,1.93
2022-11-02T00:39:28.717Z,1.27
2022-11-02T00:41:57.000Z,1.40
2022-11-02T00:44:25.353Z,1.40
2022-11-02T00:46:54.237Z,1.80
2022-11-02T00:49:23.192Z,1.80
2022-11-02T00:51:52.006Z,1.20
2022-11-02T00:54:24.477Z,1.37
2022-11-02T00:56:56.869Z,1.77
2022-11-02T00:59:25.259Z,1.37
2022-11-02T01:01:57.445Z,2.70
2022-11-02T01:04:25.913Z,1.93
2022-11-02T01:06:54.232Z,1.60
2022-11-02T01:09:22.578Z,2.30
2022-11-02T01:11:51.897Z,1.83
2022-11-02T01:14:20.673Z,1.50
2022-11-02T01:16:48.945Z,1.50
2022-11-02T01:19:17.268Z,1.50
2022-11-02T01:21:45.619Z,1.57
2022-11-02T01:24:14.026Z,1.60
2022-11-02T01:26:42.302Z,1.60
2022-11-02T01:29:12.603Z,2.10
2022-11-02T01:31:40.855Z,1.60
2022-11-02T01:34:09.092Z,2.63
2022-11-02T01:36:37.993Z,2.47
2022-11-02T01:39:06.982Z,1.30
2022-11-02T01:41:35.294Z,1.43
2022-11-02T01:44:04.076Z,1.50
2022-11-02T01:46:37.087Z,1.27
2022-11-02T01:49:11.030Z,1.77
2022-11-02T01:51:43.309Z,1.00
2022-11-02T01:54:14.604Z,1.83
2022-11-02T01:56:42.892Z,1.50
2022-11-02T01:59:16.032Z,1.13
2022-11-02T02:01:44.423Z,2.37
2022-11-02T02:04:13.069Z,1.13
2022-11-02T02:06:41.734Z,1.30
2022-11-02T02:09:10.492Z,1.20
2022-11-02T02:11:40.964Z,1.10
2022-11-02T02:14:13.800Z,2.00
2022-11-02T02:17:06.346Z,1.90
2022-11-02T02:19:58.650Z,3.07
2022-11-02T02:22:56.253Z,1.43
2022-11-02T02:26:02.301Z,1.30
2022-11-02T02:28:40.163Z,1.50
2022-11-02T02:31:32.018Z,1.63
2022-11-02T02:34:21.883Z,1.37
2022-11-02T02:37:10.797Z,2.40
2022-11-02T02:40:03.977Z,1.33
2022-11-02T02:42:47.645Z,1.47
2022-11-02T02:45:33.983Z,1.70
2022-11-02T02:48:05.503Z,2.10
2022-11-02T02:50:41.424Z,1.70
2022-11-02T02:53:10.292Z,2.27
2022-11-02T02:55:41.921Z,2.80
2022-11-02T02:58:17.112Z,2.13
2022-11-02T03:00:45.718Z,2.20
2022-11-02T03:03:18.144Z,1.93
2022-11-02T03:06:01.445Z,2.53
2022-11-02T03:08:29.775Z,2.40
2022-11-02T03:11:14.901Z,2.63
2022-11-02T03:13:57.172Z,2.23
2022-11-02T03:16:28.221Z,2.17
2022-11-02T03:19:05.746Z,2.90
2022-11-02T03:21:42.997Z,2.20
2022-11-02T03:24:22.429Z,3.10
2022-11-02T03:27:13.306Z,2.33
2022-11-02T03:29:56.610Z,2.80
2022-11-02T03:32:42.579Z,3.27
2022-11-02T03:35:19.402Z,2.73
2022-11-02T03:38:01.958Z,3.07
2022-11-02T03:40:33.511Z,2.47
2022-11-02T03:43:01.793Z,2.83
2022-11-02T03:45:33.467Z,2.67
2022-11-02T03:48:04.754Z,3.13
2022-11-02T03:50:33.382Z,3.13
2022-11-02T03:53:08.249Z,3.03
2022-11-02T03:55:38.432Z,2.30
2022-11-02T03:58:07.392Z,2.30
2022-11-02T04:00:37.160Z,2.00
2022-11-02T04:03:10.068Z,1.73
2022-11-02T04:05:43.212Z,1.60
2022-11-02T04:08:44.912Z,1.50
2022-11-02T04:11:32.001Z,1.70
2022-11-02T04:14:24.997Z,1.90
2022-11-02T04:17:16.868Z,1.73
2022-11-02T04:19:51.334Z,2.33
2022-11-02T04:22:40.253Z,2.07
2022-11-02T04:25:18.768Z,1.90
2022-11-02T04:28:10.954Z,1.97
2022-11-02T04:30:45.519Z,2.20
2022-11-02T04:33:32.762Z,2.43
2022-11-02T04:36:12.619Z,1.80
2022-11-02T04:38:42.551Z,2.77
2022-11-02T04:41:38.709Z,2.03
2022-11-02T04:44:11.714Z,2.33
2022-11-02T04:46:41.275Z,2.10
2022-11-02T04:49:11.249Z,2.20
2022-11-02T04:51:43.335Z,2.80
2022-11-02T04:54:14.018Z,2.83
2022-11-02T04:56:42.754Z,2.33
2022-11-02T04:59:11.200Z,2.43
2022-11-02T05:01:40.177Z,2.50
2022-11-02T05:04:10.008Z,2.80
2022-11-02T05:06:38.659Z,1.83
2022-11-02T05:09:07.033Z,2.60
2022-11-02T05:11:35.467Z,1.83
2022-11-02T05:14:03.911Z,2.23
2022-11-02T05:16:33.367Z,1.97
2022-11-02T05:19:04.544Z,1.60
2022-11-02T05:21:35.473Z,1.53
2022-11-02T05:24:05.263Z,1.77
2022-11-02T05:26:35.014Z,1.20
2022-11-02T05:29:05.233Z,1.83
2022-11-02T05:31:35.239Z,1.70
2022-11-02T05:34:03.728Z,1.57
2022-11-02T05:36:32.633Z,1.60
2022-11-02T05:39:01.547Z,1.83
2022-11-02T05:41:30.193Z,1.60
2022-11-02T05:44:00.525Z,1.80
2022-11-02T05:46:31.466Z,1.93
2022-11-02T05:48:59.822Z,2.40
2022-11-02T05:51:28.179Z,2.20
2022-11-02T05:53:56.464Z,2.87
2022-11-02T05:56:25.329Z,2.13
2022-11-02T05:58:56.646Z,1.87
2022-11-02T06:01:24.974Z,1.43
2022-11-02T06:03:53.944Z,1.90
2022-11-02T06:06:23.662Z,2.27
2022-11-02T06:08:52.658Z,2.13
2022-11-02T06:11:21.632Z,1.80
2022-11-02T06:13:51.132Z,2.33
2022-11-02T06:16:23.084Z,2.00
2022-11-02T06:18:52.045Z,2.40
2022-11-02T06:21:20.383Z,4.27
2022-11-02T06:23:48.897Z,4.90
2022-11-02T06:26:17.368Z,5.73
2022-11-02T06:28:45.698Z,4.70
2022-11-02T06:31:17.595Z,4.27
2022-11-02T06:33:46.079Z,4.00
2022-11-02T06:36:14.498Z,5.03
2022-11-02T06:38:43.563Z,5.63
2022-11-02T06:41:11.856Z,6.30
2022-11-02T06:43:41.284Z,5.73
2022-11-02T06:46:09.589Z,5.97
2022-11-02T06:48:37.881Z,6.03
2022-11-02T06:51:06.781Z,6.53
2022-11-02T06:53:35.242Z,6.82
2022-11-02T06:56:03.620Z,5.95
2022-11-02T06:58:32.716Z,4.75
2022-11-02T07:01:04.576Z,5.80
2022-11-02T07:03:33.135Z,4.95
2022-11-02T07:06:01.505Z,5.65
2022-11-02T07:08:29.900Z,6.10
2022-11-02T07:10:59.057Z,5.85
2022-11-02T07:13:27.965Z,6.28
2022-11-02T07:15:56.959Z,7.40
2022-11-02T07:18:25.345Z,9.10
2022-11-02T07:20:53.602Z,8.10
2022-11-02T07:23:24.338Z,8.88
2022-11-02T07:25:53.194Z,9.82
2022-11-02T07:28:21.641Z,8.83
2022-11-02T07:30:50.346Z,8.65
2022-11-02T07:33:18.609Z,7.57
2022-11-02T07:35:46.976Z,7.50
2022-11-02T07:38:15.312Z,7.35
2022-11-02T07:40:43.627Z,6.68
2022-11-02T07:43:15.492Z,6.72
2022-11-02T07:45:56.619Z,7.15
2022-11-02T07:48:25.045Z,8.13
2022-11-02T07:50:53.681Z,8.02
2022-11-02T07:53:21.976Z,7.18
2022-11-02T07:55:50.360Z,6.95
2022-11-02T07:58:18.688Z,6.07
2022-11-02T08:00:47.150Z,5.80
2022-11-02T08:03:16.327Z,5.93
2022-11-02T08:05:44.874Z,6.95
2022-11-02T08:08:18.498Z,6.20
2022-11-02T08:10:48.754Z,5.93
2022-11-02T08:13:21.960Z,6.90
2022-11-02T08:15:54.034Z,6.47
2022-11-02T08:18:26.215Z,4.78
2022-11-02T08:20:58.027Z,4.68
2022-11-02T08:23:27.893Z,4.43
2022-11-02T08:25:59.192Z,4.55
2022-11-02T08:28:30.714Z,4.55
2022-11-02T08:31:00.225Z,4.30
2022-11-02T08:33:28.554Z,3.90
2022-11-02T08:36:01.337Z,4.07
2022-11-02T08:38:29.735Z,4.38
2022-11-02T08:40:58.830Z,4.55
2022-11-02T08:43:27.191Z,4.22
2022-11-02T08:46:14.348Z,3.50
2022-11-02T08:48:43.630Z,3.78
2022-11-02T08:51:11.992Z,3.97
2022-11-02T08:53:41.221Z,4.97
2022-11-02T08:56:09.467Z,4.72
2022-11-02T08:58:37.796Z,4.68
2022-11-02T09:01:06.334Z,4.63
2022-11-02T09:03:34.685Z,5.95
2022-11-02T09:06:03.627Z,6.25
2022-11-02T09:08:33.386Z,4.10
2022-11-02T09:11:02.769Z,3.85
2022-11-02T09:13:31.206Z,3.35
2022-11-02T09:15:59.982Z,2.58
2022-11-02T09:18:28.433Z,3.70
2022-11-02T09:20:56.886Z,4.07
2022-11-02T09:23:25.246Z,5.82
2022-11-02T09:25:54.063Z,8.05
2022-11-02T09:28:22.400Z,7.93
2022-11-02T09:30:50.777Z,7.57
2022-11-02T09:33:19.181Z,5.97
2022-11-02T09:35:48.568Z,6.13
2022-11-02T09:38:18.708Z,5.65
2022-11-02T09:40:59.200Z,5.55
2022-11-02T09:43:51.286Z,9.85
2022-11-02T09:46:40.738Z,22.38
2022-11-02T09:49:23.136Z,13.00
2022-11-02T09:51:58.403Z,5.35
2022-11-02T09:54:26.861Z,4.43
2022-11-02T09:57:00.095Z,3.90
2022-11-02T09:59:28.525Z,4.03
2022-11-02T10:02:20.107Z,3.13
2022-11-02T10:05:09.946Z,2.83
2022-11-02T10:08:14.408Z,2.65
2022-11-02T10:10:53.840Z,2.70
2022-11-02T10:13:40.827Z,2.47
2022-11-02T10:16:34.134Z,2.22
2022-11-02T10:19:02.536Z,2.08
2022-11-02T10:21:37.387Z,1.80
2022-11-02T10:24:32.256Z,2.13
2022-11-02T10:27:01.547Z,2.00
2022-11-02T10:29:54.801Z,1.95
2022-11-02T10:32:23.247Z,2.00
2022-11-02T10:34:59.052Z,2.10
2022-11-02T10:38:27.494Z,2.33
2022-11-02T10:41:21.658Z,2.90
2022-11-02T10:44:21.001Z,2.10
2022-11-02T10:46:57.912Z,1.88
2022-11-02T10:49:34.634Z,2.10
2022-11-02T10:52:04.350Z,2.88
2022-11-02T10:54:34.545Z,1.95
2022-11-02T10:57:15.087Z,1.48
2022-11-02T10:59:43.402Z,2.40
2022-11-02T11:02:15.133Z,2.28
2022-11-02T11:04:44.062Z,1.40
2022-11-02T11:07:18.073Z,1.98
2022-11-02T11:09:49.175Z,2.28
2022-11-02T11:12:31.137Z,3.22
2022-11-02T11:20:39.546Z,1.63
2022-11-02T11:23:20.326Z,1.67
2022-11-02T11:25:59.670Z,1.33
2022-11-02T11:28:30.637Z,1.30
2022-11-02T11:31:23.528Z,1.42
2022-11-02T11:33:52.663Z,1.92
2022-11-02T11:38:57.085Z,1.45
2022-11-02T11:41:25.525Z,4.57
2022-11-02T11:43:53.876Z,2.88
2022-11-02T11:46:22.275Z,4.43
2022-11-02T11:48:54.932Z,3.08
2022-11-02T11:51:34.992Z,2.13
2022-11-02T11:54:07.310Z,1.60
2022-11-02T11:56:36.212Z,1.45
2022-11-02T11:59:05.103Z,2.30
2022-11-02T12:01:40.469Z,1.30
2022-11-02T12:04:08.896Z,1.10
2022-11-02T12:06:46.502Z,1.42
2022-11-02T12:09:23.758Z,1.33
2022-11-02T12:12:06.925Z,1.50
2022-11-02T12:14:50.581Z,1.23
2022-11-02T12:17:55.775Z,1.70
2022-11-02T12:21:09.020Z,1.35
2022-11-02T12:24:02.188Z,1.20
2022-11-02T12:26:31.010Z,2.78
2022-11-02T12:29:17.707Z,1.35
2022-11-02T12:31:48.321Z,1.00
2022-11-02T12:34:35.061Z,1.20
2022-11-02T12:37:41.206Z,1.00
2022-11-02T12:40:11.593Z,1.60
2022-11-02T12:43:15.944Z,1.30
2022-11-02T12:45:55.203Z,1.42
2022-11-02T12:48:39.744Z,1.13
2022-11-02T12:51:12.579Z,1.00
2022-11-02T12:53:47.932Z,1.40
2022-11-02T12:56:27.364Z,1.13
2022-11-02T12:58:55.881Z,1.13
2022-11-02T13:01:53.107Z,1.33
2022-11-02T13:04:30.424Z,0.98
2022-11-02T13:07:13.383Z,1.25
2022-11-02T13:10:19.206Z,1.05
2022-11-02T13:12:53.010Z,1.42
2022-11-02T13:15:23.101Z,1.45
2022-11-02T13:17:56.240Z,1.20
2022-11-02T13:20:33.475Z,0.95
2022-11-02T13:23:04.922Z,1.10
2022-11-02T13:25:42.724Z,1.45
2022-11-02T13:28:43.848Z,1.30
2022-11-02T13:31:15.917Z,1.13
2022-11-02T13:33:47.320Z,1.10
2022-11-02T13:36:16.320Z,1.50
2022-11-02T13:38:54.275Z,1.20
2022-11-02T13:41:53.240Z,1.10
2022-11-02T13:44:58.742Z,1.00
2022-11-02T13:47:55.602Z,0.95
2022-11-02T13:50:24.639Z,1.38
2022-11-02T13:52:56.700Z,1.30
2022-11-02T13:55:46.557Z,1.33
2022-11-02T13:58:36.390Z,1.13
2022-11-02T14:01:06.443Z,1.20
2022-11-02T14:03:50.166Z,0.98
2022-11-02T14:06:20.923Z,1.42
2022-11-02T14:09:08.609Z,1.10
2022-11-02T14:11:42.926Z,1.48
2022-11-02T14:14:11.772Z,1.08
2022-11-02T14:16:43.263Z,1.40
2022-11-02T14:19:32.384Z,1.60
2022-11-02T14:22:00.749Z,1.60
2022-11-02T14:24:34.720Z,1.90
2022-11-02T14:27:19.398Z,2.00
2022-11-02T14:29:47.813Z,2.05
2022-11-02T14:32:34.940Z,1.98
2022-11-02T14:35:37.823Z,1.55
2022-11-02T14:38:44.106Z,1.80
2022-11-02T14:41:50.547Z,2.08
2022-11-02T14:44:18.846Z,1.42
2022-11-02T14:47:11.005Z,1.85
2022-11-02T14:49:56.712Z,1.90
2022-11-02T14:52:28.440Z,2.67
2022-11-02T14:55:01.135Z,2.20
2022-11-02T14:57:36.688Z,2.45
2022-11-02T15:00:26.843Z,1.98
2022-11-02T15:02:55.132Z,5.65
2022-11-02T15:05:29.352Z,2.38
2022-11-02T15:08:00.096Z,2.35
2022-11-02T15:10:31.412Z,2.63
2022-11-02T15:13:24.245Z,2.20
2022-11-02T15:16:12.456Z,2.45
2022-11-02T15:18:40.882Z,2.70
2022-11-02T15:21:12.401Z,3.15
2022-11-02T15:23:56.230Z,3.10
2022-11-02T15:26:43.108Z,30.23
2022-11-02T15:29:40.192Z,14.95
2022-11-02T15:32:22.299Z,71.78
2022-11-02T15:34:56.467Z,77.68
2022-11-02T15:37:29.557Z,57.03
2022-11-02T15:40:00.037Z,33.58
2022-11-02T15:42:38.629Z,40.80
2022-11-02T15:45:47.737Z,25.20
2022-11-02T15:48:22.031Z,19.52
2022-11-02T15:51:03.533Z,18.88
2022-11-02T15:54:10.139Z,15.15
2022-11-02T15:57:00.406Z,16.70
2022-11-02T15:59:56.804Z,23.30
2022-11-02T16:02:53.971Z,25.08
2022-11-02T16:05:26.548Z,21.35
2022-11-02T16:08:11.770Z,12.20
2022-11-02T16:10:40.441Z,11.35
2022-11-02T16:13:22.645Z,17.33
2022-11-02T16:16:06.767Z,14.93
2022-11-02T16:18:41.692Z,8.70
2022-11-02T16:21:16.021Z,6.15
2022-11-02T16:23:57.918Z,7.47
2022-11-02T16:26:27.431Z,9.00
2022-11-02T16:28:57.072Z,5.90
2022-11-02T16:31:31.152Z,6.67
2022-11-02T16:34:09.096Z,6.43
2022-11-02T16:36:37.604Z,3.97
2022-11-02T16:39:30.979Z,5.03
2022-11-02T16:41:59.780Z,5.53
2022-11-02T16:44:32.827Z,5.33
2022-11-02T16:47:21.919Z,5.73
2022-11-02T16:49:50.438Z,7.78
2022-11-02T16:52:23.934Z,7.27
2022-11-02T16:54:53.729Z,7.80
2022-11-02T16:57:28.426Z,6.00
2022-11-02T17:00:02.133Z,11.35
2022-11-02T17:02:35.915Z,13.33
2022-11-02T17:05:06.931Z,12.13
2022-11-02T17:07:38.793Z,10.43
2022-11-02T17:10:28.240Z,6.93
2022-11-02T17:12:57.785Z,5.17
2022-11-02T17:15:29.066Z,7.93
2022-11-02T17:18:09.904Z,7.13
2022-11-02T17:20:41.493Z,9.20
2022-11-02T17:23:29.433Z,10.20
2022-11-02T17:26:28.215Z,8.10
2022-11-02T17:29:00.046Z,6.43
2022-11-02T17:31:44.446Z,7.95
2022-11-02T17:34:23.464Z,6.60
2022-11-02T17:37:09.753Z,6.33
2022-11-02T17:39:39.544Z,4.63
2022-11-02T17:42:27.633Z,5.70
2022-11-02T17:44:57.855Z,6.93
2022-11-02T17:47:27.700Z,7.13
2022-11-02T17:49:58.422Z,9.30
2022-11-02T17:52:28.824Z,6.07
2022-11-02T17:55:00.058Z,4.00
2022-11-02T17:57:30.952Z,6.50
2022-11-02T18:00:01.108Z,8.07
2022-11-02T18:02:45.008Z,6.73
2022-11-02T18:05:29.476Z,6.53
2022-11-02T18:07:58.734Z,6.20
2022-11-02T18:10:34.969Z,6.67
2022-11-02T18:13:21.073Z,8.37
2022-11-02T18:15:50.498Z,7.50
2022-11-02T18:18:19.562Z,8.10
2022-11-02T18:20:48.794Z,9.03
2022-11-02T18:23:18.229Z,10.63
2022-11-02T18:26:32.581Z,8.47
2022-11-02T18:29:01.955Z,6.53
2022-11-02T18:31:37.594Z,5.90
2022-11-02T18:34:08.141Z,5.83
2022-11-02T18:36:40.407Z,6.23
2022-11-02T18:39:12.901Z,6.37
2022-11-02T18:41:43.016Z,5.83
2022-11-02T18:44:15.425Z,4.50
2022-11-02T18:46:47.153Z,4.80
2022-11-02T18:49:17.347Z,6.90
2022-11-02T18:51:46.431Z,5.97
2022-11-02T18:54:20.074Z,6.67
2022-11-02T18:56:49.379Z,7.40
2022-11-02T18:59:20.000Z,7.90
2022-11-02T19:01:49.156Z,9.63
2022-11-02T19:04:21.314Z,8.60
2022-11-02T19:07:13.880Z,9.03
2022-11-02T19:09:45.895Z,8.17
2022-11-02T19:12:18.778Z,6.37
2022-11-02T19:14:51.940Z,6.13
2022-11-02T19:17:26.280Z,6.10
2022-11-02T19:19:55.044Z,6.23
2022-11-02T19:22:25.365Z,7.20
2022-11-02T19:24:53.978Z,7.53
2022-11-02T19:27:26.299Z,10.10
2022-11-02T19:29:55.628Z,9.27
2022-11-02T19:32:24.700Z,9.03
2022-11-02T19:34:54.331Z,8.73
2022-11-02T19:37:26.036Z,7.13
2022-11-02T19:39:55.392Z,6.47
2022-11-02T19:42:23.784Z,8.37
2022-11-02T19:44:56.597Z,7.30
2022-11-02T19:47:27.968Z,6.27
2022-11-02T19:49:57.069Z,5.70
2022-11-02T19:52:25.657Z,5.13
2022-11-02T19:54:54.346Z,4.43
2022-11-02T19:57:22.840Z,5.13
2022-11-02T19:59:53.786Z,6.60
2022-11-02T20:02:22.244Z,6.97
2022-11-02T20:04:51.349Z,5.57
2022-11-02T20:07:21.261Z,5.33
2022-11-02T20:09:52.444Z,8.17
2022-11-02T20:12:23.106Z,6.63
2022-11-02T20:14:52.842Z,5.30
2022-11-02T20:17:32.089Z,5.07
2022-11-02T20:20:08.984Z,5.80
2022-11-02T20:22:38.996Z,4.13
2022-11-02T20:25:07.881Z,5.60
2022-11-02T20:27:41.522Z,5.40
2022-11-02T20:30:10.218Z,6.13
2022-11-02T20:32:39.325Z,5.53
2022-11-02T20:35:13.859Z,5.07
2022-11-02T20:37:42.377Z,5.53
2022-11-02T20:40:12.555Z,4.83
2022-11-02T20:42:41.007Z,6.70
2022-11-02T20:45:09.794Z,4.97
2022-11-02T20:47:38.127Z,5.30
2022-11-02T20:50:09.108Z,4.93
2022-11-02T20:52:39.925Z,4.37
2022-11-02T20:55:10.028Z,4.93
2022-11-02T20:57:38.414Z,5.07
2022-11-02T21:00:07.447Z,5.20
2022-11-02T21:02:35.880Z,7.23
2022-11-02T21:05:05.222Z,7.50
2022-11-02T21:07:33.587Z,7.40
2022-11-02T21:10:01.858Z,18.43
2022-11-02T21:12:48.694Z,12.10
2022-11-02T21:15:17.652Z,19.93
2022-11-02T21:17:46.000Z,10.83
2022-11-02T21:20:33.065Z,6.27
2022-11-02T21:23:03.035Z,5.20
2022-11-02T21:25:32.208Z,5.57
2022-11-02T21:28:00.799Z,4.13
2022-11-02T21:30:31.286Z,4.90
2022-11-02T21:32:59.640Z,5.23
2022-11-02T21:35:28.182Z,6.17
2022-11-02T21:38:01.179Z,5.70
2022-11-02T21:40:32.305Z,5.00
2022-11-02T21:43:00.987Z,6.00
2022-11-02T21:45:33.551Z,6.33
2022-11-02T21:48:06.394Z,10.90
2022-11-02T21:50:34.608Z,12.70
2022-11-02T21:53:03.822Z,11.63
2022-11-02T21:55:32.375Z,9.40
2022-11-02T21:58:01.150Z,8.80
2022-11-02T22:00:49.533Z,8.37
2022-11-02T22:03:18.069Z,11.70
2022-11-02T22:05:56.346Z,9.63
2022-11-02T22:08:40.119Z,6.93
2022-11-02T22:11:12.708Z,7.00
2022-11-02T22:13:42.818Z,6.10
2022-11-02T22:16:24.924Z,6.13
2022-11-02T22:18:57.585Z,5.43
2022-11-02T22:21:27.435Z,6.23
2022-11-02T22:23:56.933Z,4.80
2022-11-02T22:26:27.286Z,4.77
2022-11-02T22:29:00.313Z,5.37
2022-11-02T22:31:36.277Z,4.73
2022-11-02T22:34:05.631Z,5.13
2022-11-02T22:36:35.008Z,6.37
2022-11-02T22:39:05.328Z,4.03
2022-11-02T22:41:37.485Z,4.27
2022-11-02T22:44:11.207Z,4.90
2022-11-02T22:46:41.422Z,4.17
2022-11-02T22:49:10.939Z,4.53
2022-11-02T22:51:43.960Z,4.43
2022-11-02T22:54:21.618Z,4.00
2022-11-02T22:56:50.109Z,3.37
2022-11-02T22:59:19.474Z,3.77
2022-11-02T23:01:48.265Z,3.60
2022-11-02T23:04:17.007Z,4.00
2022-11-02T23:06:45.610Z,3.00
2022-11-02T23:09:14.228Z,3.87
2022-11-02T23:11:44.310Z,3.27
2022-11-02T23:14:14.945Z,3.43
2022-11-02T23:16:47.236Z,3.23
2022-11-02T23:19:29.340Z,3.47
2022-11-02T23:22:17.296Z,2.97
2022-11-02T23:25:11.601Z,3.97
2022-11-02T23:27:59.767Z,4.30
2022-11-02T23:30:56.165Z,3.67
2022-11-02T23:33:28.158Z,4.03
2022-11-02T23:36:12.852Z,4.43
2022-11-02T23:39:06.860Z,3.93
2022-11-02T23:41:37.063Z,5.30
2022-11-02T23:44:19.253Z,4.10
2022-11-02T23:46:50.915Z,4.10
2022-11-02T23:49:19.836Z,4.53
2022-11-02T23:52:06.820Z,4.57
2022-11-02T23:54:53.397Z,4.07
2022-11-02T23:57:22.773Z,5.40
2022-11-02T23:59:51.085Z,4.60
